createdAt,value
2017-10-31T00:00:43.773Z,180.3
2017-10-31T00:01:43.711Z,180.1
2017-10-31T00:02:43.690Z,180.6
2017-10-31T00:03:43.695Z,169.5
2017-10-31T00:04:43.702Z,169.5
2017-10-31T00:05:43.809Z,171.2
2017-10-31T00:06:43.684Z,165.8
2017-10-31T00:07:43.684Z,162.8
2017-10-31T00:08:43.698Z,162.6
2017-10-31T00:09:43.709Z,160.7
2017-10-31T00:10:43.796Z,151.6
2017-10-31T00:11:43.686Z,147.5
2017-10-31T00:12:43.722Z,149.9
2017-10-31T00:13:43.652Z,158
2017-10-31T00:14:43.701Z,159.1
2017-10-31T00:15:43.711Z,161.1
2017-10-31T00:16:43.710Z,155.9
2017-10-31T00:17:43.642Z,162.3
2017-10-31T00:18:43.700Z,171.8
2017-10-31T00:19:43.641Z,169.4
2017-10-31T00:20:43.684Z,174.3
2017-10-31T00:21:43.755Z,170.6
2017-10-31T00:22:43.710Z,161.6
2017-10-31T00:23:43.663Z,171.8
2017-10-31T00:24:43.687Z,158.8
2017-10-31T00:25:43.662Z,145.7
2017-10-31T00:26:43.727Z,145.4
2017-10-31T00:27:43.650Z,152
2017-10-31T00:28:43.684Z,154.9
2017-10-31T00:29:43.710Z,156.3
2017-10-31T00:30:43.668Z,156.9
2017-10-31T00:31:43.730Z,157.2
2017-10-31T00:32:43.677Z,157.4
2017-10-31T00:33:43.636Z,157.4
2017-10-31T00:34:43.664Z,157.5
2017-10-31T00:35:43.669Z,157.5
2017-10-31T00:36:43.755Z,167.7
2017-10-31T00:37:43.638Z,164.9
2017-10-31T00:38:43.655Z,160.9
2017-10-31T00:39:43.643Z,160.7
2017-10-31T00:40:43.670Z,171
2017-10-31T00:41:43.697Z,171.9
2017-10-31T00:42:43.653Z,153.4
2017-10-31T00:43:43.670Z,143.6
2017-10-31T00:44:43.632Z,138.9
2017-10-31T00:45:43.689Z,160.2
2017-10-31T00:46:43.738Z,171.1
2017-10-31T00:47:43.683Z,172.3
2017-10-31T00:48:43.668Z,164.3
2017-10-31T00:49:43.665Z,165
2017-10-31T00:50:43.686Z,168.1
2017-10-31T00:51:43.768Z,174.5
2017-10-31T00:52:43.702Z,178.1
2017-10-31T00:53:43.710Z,177.9
2017-10-31T00:54:43.654Z,167.6
2017-10-31T00:55:43.668Z,174.4
2017-10-31T00:56:43.732Z,175.8
2017-10-31T00:57:43.687Z,166.4
2017-10-31T00:58:43.691Z,161.6
2017-10-31T00:59:43.675Z,150.4
2017-10-31T01:00:43.654Z,142.2
2017-10-31T01:01:43.720Z,138.4
2017-10-31T01:02:43.674Z,146.1
2017-10-31T01:03:43.689Z,143.2
2017-10-31T01:04:43.666Z,142.5
2017-10-31T01:05:43.693Z,144.9
2017-10-31T01:06:43.729Z,151.7
2017-10-31T01:07:43.668Z,154.8
2017-10-31T01:08:43.641Z,157.9
2017-10-31T01:09:43.660Z,151.9
2017-10-31T01:10:43.668Z,154.9
2017-10-31T01:11:43.785Z,142.3
2017-10-31T01:12:43.678Z,146.8
2017-10-31T01:13:43.653Z,150.1
2017-10-31T01:14:43.656Z,163.2
2017-10-31T01:15:43.685Z,161.8
2017-10-31T01:16:43.706Z,156.8
2017-10-31T01:17:43.651Z,145
2017-10-31T01:18:43.646Z,140.7
2017-10-31T01:19:43.668Z,156.3
2017-10-31T01:20:43.670Z,168.2
2017-10-31T01:22:03.478Z,169.5
2017-10-31T01:22:43.662Z,180.5
2017-10-31T01:23:43.675Z,173.6
2017-10-31T01:24:43.595Z,174.7
2017-10-31T01:25:43.659Z,177
2017-10-31T01:26:43.634Z,177.5
2017-10-31T01:27:43.703Z,163.4
2017-10-31T01:28:43.647Z,164.4
2017-10-31T01:29:43.687Z,169.6
2017-10-31T01:30:43.658Z,175.3
2017-10-31T01:31:43.649Z,175.1
2017-10-31T01:32:43.703Z,174.5
2017-10-31T01:33:43.653Z,170.9
2017-10-31T01:34:43.659Z,168.9
2017-10-31T01:35:43.684Z,169.4
2017-10-31T01:36:43.663Z,172.8
2017-10-31T01:37:43.680Z,176.7
2017-10-31T01:38:43.642Z,157.6
2017-10-31T01:39:43.648Z,159.3
2017-10-31T01:40:43.703Z,156.6
2017-10-31T01:41:43.651Z,124.1
2017-10-31T01:42:43.715Z,134.6
2017-10-31T01:43:43.655Z,124.5
2017-10-31T01:44:43.659Z,105.2
2017-10-31T01:45:43.648Z,96.8
2017-10-31T01:46:43.627Z,127.5
2017-10-31T01:47:43.701Z,168.6
2017-10-31T01:48:43.638Z,127.9
2017-10-31T01:49:43.628Z,106.2
2017-10-31T01:50:43.636Z,96.6
2017-10-31T01:51:43.638Z,92.8
2017-10-31T01:52:43.704Z,91.3
2017-10-31T01:53:43.608Z,90.6
2017-10-31T01:54:43.658Z,90.3
2017-10-31T01:55:43.670Z,90.1
2017-10-31T01:56:43.639Z,90.1
2017-10-31T01:57:43.704Z,90
2017-10-31T01:58:43.666Z,90
2017-10-31T01:59:43.632Z,92.1
2017-10-31T02:00:43.657Z,127.5
2017-10-31T02:01:43.611Z,159.1
2017-10-31T02:02:43.693Z,170.2
2017-10-31T02:03:43.644Z,156.4
2017-10-31T02:04:43.632Z,169.5
2017-10-31T02:05:43.655Z,176.1
2017-10-31T02:06:43.722Z,178.2
2017-10-31T02:07:43.701Z,179.2
2017-10-31T02:08:43.654Z,180.6
2017-10-31T02:09:43.658Z,180.3
2017-10-31T02:10:43.626Z,180.7
2017-10-31T02:11:43.616Z,180.3
2017-10-31T02:12:43.729Z,176.1
2017-10-31T02:13:43.644Z,160.4
2017-10-31T02:14:43.647Z,171.2
2017-10-31T02:15:43.667Z,176
2017-10-31T02:16:43.614Z,161
2017-10-31T02:17:43.672Z,150.2
2017-10-31T02:18:43.636Z,132
2017-10-31T02:19:43.610Z,121.1
2017-10-31T02:20:43.646Z,116.4
2017-10-31T02:21:43.657Z,114.3
2017-10-31T02:22:43.771Z,113.3
2017-10-31T02:23:43.652Z,119
2017-10-31T02:24:43.636Z,146.8
2017-10-31T02:25:43.621Z,149.6
2017-10-31T02:26:43.633Z,167.4
2017-10-31T02:27:43.777Z,155.4
2017-10-31T02:28:43.618Z,155.1
2017-10-31T02:29:43.626Z,145.6
2017-10-31T02:30:43.621Z,132.6
2017-10-31T02:31:43.634Z,132.4
2017-10-31T02:32:43.653Z,132.9
2017-10-31T02:33:43.624Z,131.9
2017-10-31T02:34:43.614Z,98.5
2017-10-31T02:35:43.657Z,106.8
2017-10-31T02:36:43.632Z,123.5
2017-10-31T02:37:43.749Z,131.6
2017-10-31T02:38:43.659Z,131.9
2017-10-31T02:39:43.612Z,132.7
2017-10-31T02:40:43.621Z,132.6
2017-10-31T02:41:43.650Z,132.2
2017-10-31T02:42:43.717Z,132.6
2017-10-31T02:43:43.632Z,135.5
2017-10-31T02:44:43.619Z,134.3
2017-10-31T02:45:43.581Z,131.4
2017-10-31T02:46:43.648Z,132.9
2017-10-31T02:47:43.711Z,134.2
2017-10-31T02:48:43.633Z,134.3
2017-10-31T02:49:43.637Z,134.6
2017-10-31T02:50:43.666Z,135.6
2017-10-31T02:51:43.648Z,137.2
2017-10-31T02:52:43.624Z,135.4
2017-10-31T02:53:43.659Z,135.2
2017-10-31T02:54:43.600Z,135.1
2017-10-31T02:55:43.623Z,142
2017-10-31T02:56:43.593Z,147.8
2017-10-31T02:57:43.712Z,140.6
2017-10-31T02:58:43.629Z,136.4
2017-10-31T02:59:43.610Z,137.2
2017-10-31T03:00:43.637Z,137.6
2017-10-31T03:01:43.630Z,134
2017-10-31T03:02:43.663Z,133.4
2017-10-31T03:03:43.595Z,133.2
2017-10-31T03:04:43.628Z,135.4
2017-10-31T03:05:43.642Z,132.6
2017-10-31T03:06:43.630Z,124.7
2017-10-31T03:07:43.721Z,130.9
2017-10-31T03:08:43.620Z,133.1
2017-10-31T03:09:43.595Z,131.2
2017-10-31T03:10:43.554Z,133.2
2017-10-31T03:11:43.625Z,133.4
2017-10-31T03:12:43.645Z,134.3
2017-10-31T03:13:43.648Z,134.3
2017-10-31T03:14:43.590Z,134.7
2017-10-31T03:15:43.564Z,126.5
2017-10-31T03:16:43.582Z,106.6
2017-10-31T03:17:43.588Z,97.5
2017-10-31T03:18:43.614Z,93.4
2017-10-31T03:19:43.635Z,101.1
2017-10-31T03:20:43.604Z,113.5
2017-10-31T03:21:43.623Z,125.2
2017-10-31T03:22:43.617Z,118.7
2017-10-31T03:23:43.872Z,127.6
2017-10-31T03:24:43.552Z,132.6
2017-10-31T03:25:43.591Z,133.9
2017-10-31T03:26:43.575Z,134.5
2017-10-31T03:27:43.596Z,113.6
2017-10-31T03:28:43.715Z,71.8
2017-10-31T03:29:43.581Z,55.6
2017-10-31T03:30:43.593Z,84.4
2017-10-31T03:31:43.614Z,107.8
2017-10-31T03:32:43.584Z,95.5
2017-10-31T03:33:43.695Z,80.1
2017-10-31T03:34:43.579Z,84.5
2017-10-31T03:35:43.619Z,84.8
2017-10-31T03:36:43.595Z,71.7
2017-10-31T03:37:43.588Z,67.8
2017-10-31T03:38:43.704Z,55
2017-10-31T03:39:43.573Z,49.5
2017-10-31T03:40:43.608Z,47.1
2017-10-31T03:41:43.623Z,48
2017-10-31T03:42:43.613Z,70.7
2017-10-31T03:43:43.686Z,88.6
2017-10-31T03:44:43.592Z,106
2017-10-31T03:45:43.565Z,97
2017-10-31T03:46:43.577Z,88.4
2017-10-31T03:47:43.559Z,89.3
2017-10-31T03:48:44.691Z,111.8
2017-10-31T03:49:43.623Z,124.7
2017-10-31T03:50:43.574Z,130.4
2017-10-31T03:51:43.606Z,115.5
2017-10-31T03:52:43.587Z,127.8
2017-10-31T03:53:43.629Z,134
2017-10-31T03:54:43.607Z,141.8
2017-10-31T03:55:43.593Z,128.9
2017-10-31T03:56:43.605Z,119.9
2017-10-31T03:57:43.582Z,112.8
2017-10-31T03:58:43.657Z,84.9
2017-10-31T03:59:43.604Z,99
2017-10-31T04:00:43.615Z,104.7
2017-10-31T04:01:43.580Z,122.4
2017-10-31T04:02:43.588Z,128.5
2017-10-31T04:03:43.657Z,136.9
2017-10-31T04:04:43.545Z,129.9
2017-10-31T04:05:43.607Z,130.7
2017-10-31T04:06:43.590Z,138.1
2017-10-31T04:07:43.591Z,139.4
2017-10-31T04:08:43.651Z,135
2017-10-31T04:09:43.597Z,132.9
2017-10-31T04:10:43.595Z,121.9
2017-10-31T04:11:43.624Z,127.1
2017-10-31T04:12:43.571Z,136.5
2017-10-31T04:13:43.644Z,158.9
2017-10-31T04:14:43.607Z,163.9
2017-10-31T04:15:43.602Z,148.7
2017-10-31T04:16:43.529Z,147.2
2017-10-31T04:17:43.566Z,152.4
2017-10-31T04:18:43.628Z,146.2
2017-10-31T04:19:43.580Z,146.5
2017-10-31T04:20:43.571Z,145.1
2017-10-31T04:21:43.573Z,164.1
2017-10-31T04:22:43.581Z,161.8
2017-10-31T04:23:43.598Z,172
2017-10-31T04:24:43.554Z,176.4
2017-10-31T04:25:43.567Z,178.3
2017-10-31T04:26:46.324Z,157
2017-10-31T04:27:46.506Z,140.8
2017-10-31T04:28:43.625Z,111.9
2017-10-31T04:29:43.592Z,109.4
2017-10-31T04:30:43.555Z,119.5
2017-10-31T04:31:43.581Z,134.5
2017-10-31T04:32:43.566Z,140.5
2017-10-31T04:33:43.627Z,142.6
2017-10-31T04:34:43.546Z,135.4
2017-10-31T04:35:43.578Z,138.3
2017-10-31T04:36:43.592Z,135
2017-10-31T04:37:43.573Z,137.2
2017-10-31T04:38:43.643Z,146.4
2017-10-31T04:39:43.591Z,136.9
2017-10-31T04:40:43.535Z,135.9
2017-10-31T04:41:43.560Z,121.8
2017-10-31T04:42:43.569Z,128.2
2017-10-31T04:43:43.576Z,124.1
2017-10-31T04:44:43.585Z,121.2
2017-10-31T04:45:43.532Z,118.3
2017-10-31T04:46:43.580Z,135.1
2017-10-31T04:47:43.572Z,131.6
2017-10-31T04:48:43.598Z,138.7
2017-10-31T04:49:43.581Z,138
2017-10-31T04:50:43.541Z,119
2017-10-31T04:51:43.530Z,120.2
2017-10-31T04:52:43.569Z,102.3
2017-10-31T04:53:43.568Z,95.3
2017-10-31T04:54:43.593Z,94
2017-10-31T04:55:43.561Z,80.4
2017-10-31T04:56:43.567Z,86
2017-10-31T04:57:43.552Z,88.2
2017-10-31T04:58:43.561Z,89.2
2017-10-31T04:59:43.591Z,89.6
2017-10-31T05:00:43.550Z,89.8
2017-10-31T05:01:43.547Z,89.9
2017-10-31T05:02:43.552Z,90
2017-10-31T05:03:43.534Z,90
2017-10-31T05:04:43.622Z,90
2017-10-31T05:05:43.529Z,90
2017-10-31T05:06:43.560Z,90
2017-10-31T05:07:43.551Z,90
2017-10-31T05:08:43.508Z,90
2017-10-31T05:09:43.571Z,90
2017-10-31T05:10:43.570Z,90
2017-10-31T05:11:43.525Z,90
2017-10-31T05:12:43.552Z,90
2017-10-31T05:13:43.535Z,90
2017-10-31T05:14:43.690Z,90
2017-10-31T05:15:43.548Z,90
2017-10-31T05:16:43.537Z,90
2017-10-31T05:17:43.545Z,90
2017-10-31T05:18:43.517Z,90
2017-10-31T05:19:43.612Z,90
2017-10-31T05:20:43.567Z,90
2017-10-31T05:21:43.563Z,90
2017-10-31T05:22:43.563Z,90
2017-10-31T05:23:43.564Z,90
2017-10-31T05:24:43.651Z,90
2017-10-31T05:25:43.575Z,90
2017-10-31T05:26:43.585Z,90
2017-10-31T05:27:43.605Z,90
2017-10-31T05:28:43.642Z,90
2017-10-31T05:29:43.776Z,90
2017-10-31T05:30:43.761Z,90
2017-10-31T05:31:43.722Z,90
2017-10-31T05:32:43.694Z,90
2017-10-31T05:33:43.819Z,81.8
2017-10-31T05:34:43.798Z,74.1
2017-10-31T05:35:43.831Z,70.6
2017-10-31T05:36:46.690Z,68.9
2017-10-31T05:37:43.776Z,80.2
2017-10-31T05:38:43.837Z,85.5
2017-10-31T05:39:43.865Z,87.9
2017-10-31T05:40:43.846Z,89
2017-10-31T05:41:43.889Z,89.5
2017-10-31T05:42:43.824Z,89.8
2017-10-31T05:43:43.895Z,89.9
2017-10-31T05:44:43.904Z,89.4
2017-10-31T05:45:43.957Z,89.7
2017-10-31T05:46:43.953Z,89.9
2017-10-31T05:47:43.865Z,89.9
2017-10-31T05:48:43.972Z,90
2017-10-31T05:49:44.022Z,70.3
2017-10-31T05:50:44.010Z,56.3
2017-10-31T05:51:44.022Z,50.1
2017-10-31T05:52:43.958Z,47.4
2017-10-31T05:53:44.056Z,46.1
2017-10-31T05:54:47.016Z,45.5
2017-10-31T05:55:43.979Z,45.2
2017-10-31T05:56:44.030Z,45.1
2017-10-31T05:57:44.039Z,62
2017-10-31T05:58:44.019Z,33.6
2017-10-31T05:59:44.056Z,13.9
2017-10-31T06:00:43.914Z,6
2017-10-31T06:01:43.882Z,2.7
2017-10-31T06:02:43.878Z,1.2
2017-10-31T06:03:43.955Z,0.6
2017-10-31T06:04:43.959Z,0.3
2017-10-31T06:05:43.989Z,0.1
2017-10-31T06:06:43.972Z,0.1
2017-10-31T06:07:43.968Z,0
2017-10-31T06:08:43.999Z,0
2017-10-31T06:09:44.016Z,0
2017-10-31T06:10:44.086Z,0
2017-10-31T06:11:44.078Z,0
2017-10-31T06:12:43.486Z,0
2017-10-31T06:13:43.501Z,0
2017-10-31T06:14:43.506Z,0
2017-10-31T06:15:43.508Z,0
2017-10-31T06:16:44.436Z,0
2017-10-31T06:17:43.545Z,0
2017-10-31T06:18:43.529Z,3.6
2017-10-31T06:20:03.386Z,13.7
2017-10-31T06:20:43.528Z,18.4
2017-10-31T06:21:43.551Z,20.6
2017-10-31T06:22:43.531Z,21.6
2017-10-31T06:23:43.512Z,22.1
2017-10-31T06:24:43.501Z,22.3
2017-10-31T06:25:43.571Z,25
2017-10-31T06:26:43.499Z,35.7
2017-10-31T06:27:43.546Z,40.7
2017-10-31T06:28:43.518Z,43
2017-10-31T06:29:43.491Z,44.1
2017-10-31T06:30:43.552Z,44.6
2017-10-31T06:31:44.568Z,44.8
2017-10-31T06:32:43.431Z,44.9
2017-10-31T06:33:43.487Z,45
2017-10-31T06:34:43.509Z,45
2017-10-31T06:35:43.566Z,45
2017-10-31T06:36:43.501Z,45
2017-10-31T06:37:43.532Z,45
2017-10-31T06:38:43.541Z,45
2017-10-31T06:39:43.524Z,45
2017-10-31T06:40:43.580Z,45
2017-10-31T06:41:44.436Z,45
2017-10-31T06:42:43.681Z,45
2017-10-31T06:43:44.689Z,45
2017-10-31T06:44:43.491Z,45
2017-10-31T06:45:43.550Z,45
2017-10-31T06:46:43.539Z,45
2017-10-31T06:47:43.448Z,45
2017-10-31T06:48:43.490Z,45
2017-10-31T06:49:46.325Z,45
2017-10-31T06:50:43.601Z,45
2017-10-31T06:51:43.542Z,45
2017-10-31T06:52:43.493Z,45
2017-10-31T06:53:43.515Z,45
2017-10-31T06:54:43.499Z,45
2017-10-31T06:55:43.495Z,45
2017-10-31T06:56:43.494Z,45
2017-10-31T06:57:43.592Z,45
2017-10-31T06:58:43.537Z,45
2017-10-31T06:59:43.492Z,45
2017-10-31T07:00:43.599Z,45
2017-10-31T07:01:43.435Z,45
2017-10-31T07:02:43.450Z,45
2017-10-31T07:03:43.505Z,45
2017-10-31T07:04:43.554Z,45
2017-10-31T07:05:43.640Z,68
2017-10-31T07:06:43.540Z,80.8
2017-10-31T07:07:43.540Z,85.9
2017-10-31T07:08:43.584Z,75.7
2017-10-31T07:09:43.556Z,59.1
2017-10-31T07:10:43.704Z,107.1
2017-10-31T07:11:43.590Z,135
2017-10-31T07:12:43.657Z,155.5
2017-10-31T07:13:43.693Z,153.7
2017-10-31T07:14:43.645Z,122.5
2017-10-31T07:15:43.710Z,103.4
2017-10-31T07:16:43.758Z,95.8
2017-10-31T07:17:43.424Z,92.6
2017-10-31T07:18:43.795Z,91.2
2017-10-31T07:19:43.739Z,90.6
2017-10-31T07:20:43.890Z,90.3
2017-10-31T07:21:43.801Z,119.6
2017-10-31T07:22:43.739Z,140.8
2017-10-31T07:23:43.817Z,149.3
2017-10-31T07:24:43.817Z,144.1
2017-10-31T07:25:43.800Z,145.3
2017-10-31T07:26:43.858Z,165.6
2017-10-31T07:27:43.835Z,163.5
2017-10-31T07:28:43.911Z,148.2
2017-10-31T07:29:43.878Z,130.2
2017-10-31T07:30:43.928Z,120.4
2017-10-31T07:31:43.911Z,116.1
2017-10-31T07:32:43.646Z,114.1
2017-10-31T07:33:46.796Z,114.9
2017-10-31T07:34:43.859Z,125.9
2017-10-31T07:35:43.885Z,130.8
2017-10-31T07:36:43.982Z,152.5
2017-10-31T07:37:43.934Z,167.8
2017-10-31T07:38:43.913Z,174.5
2017-10-31T07:39:44.026Z,177.5
2017-10-31T07:40:44.065Z,178.8
2017-10-31T07:41:44.594Z,179.5
2017-10-31T07:42:54.268Z,179.7
2017-10-31T07:44:02.417Z,179.9
2017-10-31T07:44:44.235Z,181.1
2017-10-31T07:45:43.390Z,170.2
2017-10-31T07:46:43.697Z,163.4
2017-10-31T07:47:43.900Z,160.2
2017-10-31T07:48:43.972Z,151.3
2017-10-31T07:49:43.792Z,142.5
2017-10-31T07:50:43.409Z,138.5
2017-10-31T07:51:44.368Z,136.6
2017-10-31T07:52:43.411Z,118.7
2017-10-31T07:53:43.513Z,140.3
2017-10-31T07:54:44.286Z,141.6
2017-10-31T07:55:43.448Z,138.3
2017-10-31T07:56:43.513Z,136.5
2017-10-31T07:57:43.489Z,135.7
2017-10-31T07:58:43.430Z,135.3
2017-10-31T07:59:44.414Z,134.1
2017-10-31T08:00:43.448Z,129.7
2017-10-31T08:01:43.546Z,132.6
2017-10-31T08:02:43.435Z,133.9
2017-10-31T08:03:43.500Z,134.5
2017-10-31T08:04:43.470Z,134.8
2017-10-31T08:05:43.501Z,134.9
2017-10-31T08:06:43.697Z,134.9
2017-10-31T08:07:43.419Z,135
2017-10-31T08:08:43.490Z,135
2017-10-31T08:09:43.476Z,135
2017-10-31T08:10:43.489Z,135
2017-10-31T08:11:43.548Z,135
2017-10-31T08:12:43.622Z,135
2017-10-31T08:13:43.514Z,141.6
2017-10-31T08:14:43.498Z,141.8
2017-10-31T08:15:44.985Z,134.9
2017-10-31T08:16:43.546Z,135.2
2017-10-31T08:17:44.432Z,135.1
2017-10-31T08:18:43.461Z,135.3
2017-10-31T08:19:43.502Z,135.1
2017-10-31T08:20:43.420Z,108.3
2017-10-31T08:21:43.548Z,126
2017-10-31T08:22:43.457Z,131.1
2017-10-31T08:23:43.481Z,132.8
2017-10-31T08:24:43.494Z,132.7
2017-10-31T08:25:43.530Z,133.9
2017-10-31T08:26:43.804Z,135.4
2017-10-31T08:27:43.510Z,135.2
2017-10-31T08:28:43.537Z,115.4
2017-10-31T08:29:43.547Z,101.2
2017-10-31T08:30:43.395Z,95.1
2017-10-31T08:31:45.279Z,92.3
2017-10-31T08:32:45.074Z,102
2017-10-31T08:33:43.408Z,107.7
2017-10-31T08:34:43.392Z,110.3
2017-10-31T08:35:43.447Z,122.9
2017-10-31T08:36:43.804Z,106.3
2017-10-31T08:37:43.665Z,97.4
2017-10-31T08:38:43.385Z,93.3
2017-10-31T08:39:43.485Z,91.6
2017-10-31T08:40:44.501Z,90.7
2017-10-31T08:41:45.338Z,90.3
2017-10-31T08:42:43.409Z,90.2
2017-10-31T08:43:43.415Z,90.1
2017-10-31T08:44:44.343Z,90
2017-10-31T08:45:44.726Z,90
2017-10-31T08:46:43.430Z,90
2017-10-31T08:47:43.480Z,90
2017-10-31T08:48:45.129Z,90
2017-10-31T08:49:44.539Z,90
2017-10-31T08:50:43.836Z,90
2017-10-31T08:51:45.162Z,90
2017-10-31T08:52:43.478Z,90
2017-10-31T08:53:43.622Z,90
2017-10-31T08:54:43.662Z,90
2017-10-31T08:55:43.697Z,90
2017-10-31T08:56:43.776Z,90
2017-10-31T08:57:43.746Z,90
2017-10-31T08:58:43.709Z,90
2017-10-31T08:59:43.766Z,95
2017-10-31T09:00:43.733Z,116.7
2017-10-31T09:01:43.830Z,126.2
2017-10-31T09:02:43.476Z,131
2017-10-31T09:03:43.784Z,133.1
2017-10-31T09:04:43.735Z,134.1
2017-10-31T09:05:43.807Z,134.6
2017-10-31T09:06:43.813Z,134.8
2017-10-31T09:07:43.863Z,135.3
2017-10-31T09:08:43.800Z,135.1
2017-10-31T09:09:43.919Z,134.2
2017-10-31T09:10:43.905Z,134.6
2017-10-31T09:11:43.860Z,134.8
2017-10-31T09:12:43.910Z,134.9
2017-10-31T09:13:43.823Z,135
2017-10-31T09:14:43.844Z,134.2
2017-10-31T09:15:43.843Z,134.6
2017-10-31T09:16:43.906Z,134.8
2017-10-31T09:17:44.009Z,134.9
2017-10-31T09:18:43.953Z,135
2017-10-31T09:19:43.935Z,135
2017-10-31T09:20:44.008Z,135
2017-10-31T09:21:43.959Z,135
2017-10-31T09:22:44.045Z,135
2017-10-31T09:23:44.015Z,135
2017-10-31T09:24:44.097Z,135
2017-10-31T09:25:44.056Z,135
2017-10-31T09:26:43.370Z,135
2017-10-31T09:27:44.115Z,135
2017-10-31T09:28:43.437Z,135
2017-10-31T09:29:43.424Z,135
2017-10-31T09:30:43.468Z,135
2017-10-31T09:31:43.484Z,135
2017-10-31T09:32:43.521Z,135
2017-10-31T09:33:43.453Z,135.4
2017-10-31T09:34:43.426Z,135.2
2017-10-31T09:35:43.463Z,135.1
2017-10-31T09:36:43.462Z,135
2017-10-31T09:37:43.526Z,135
2017-10-31T09:38:43.439Z,134.5
2017-10-31T09:39:43.468Z,132.6
2017-10-31T09:40:43.449Z,133.6
2017-10-31T09:41:43.453Z,134
2017-10-31T09:42:43.465Z,134.5
2017-10-31T09:43:43.476Z,134.8
2017-10-31T09:44:43.468Z,134.9
2017-10-31T09:45:43.464Z,135
2017-10-31T09:46:43.474Z,135
2017-10-31T09:47:43.431Z,135
2017-10-31T09:48:46.759Z,124.9
2017-10-31T09:49:43.364Z,105.8
2017-10-31T09:51:02.448Z,97.1
2017-10-31T09:51:44.887Z,93.3
2017-10-31T09:52:45.201Z,91.5
2017-10-31T09:53:46.162Z,90.7
2017-10-31T09:54:45.230Z,90.3
2017-10-31T09:55:45.305Z,90.2
2017-10-31T09:56:45.037Z,90.1
2017-10-31T09:57:45.262Z,90
2017-10-31T09:58:43.486Z,90
2017-10-31T09:59:43.423Z,90
2017-10-31T10:00:43.410Z,90
2017-10-31T10:01:43.370Z,90
2017-10-31T10:02:43.449Z,94.2
2017-10-31T10:03:43.525Z,92
2017-10-31T10:04:43.440Z,102.5
2017-10-31T10:05:43.433Z,108
2017-10-31T10:06:43.493Z,118
2017-10-31T10:07:43.435Z,113.6
2017-10-31T10:08:43.497Z,100.7
2017-10-31T10:09:43.446Z,117
2017-10-31T10:10:43.438Z,126.9
2017-10-31T10:11:43.423Z,126.3
2017-10-31T10:12:43.429Z,127.9
2017-10-31T10:13:43.543Z,119.9
2017-10-31T10:14:43.426Z,128.1
2017-10-31T10:15:43.457Z,134.9
2017-10-31T10:16:43.448Z,136
2017-10-31T10:17:43.460Z,137.9
2017-10-31T10:18:43.532Z,147.1
2017-10-31T10:19:43.442Z,146.5
2017-10-31T10:21:18.051Z,140.2
2017-10-31T10:21:43.458Z,143.9
2017-10-31T10:22:43.436Z,139.1
2017-10-31T10:23:43.493Z,133.6
2017-10-31T10:24:43.440Z,110.1
2017-10-31T10:25:43.402Z,99
2017-10-31T10:26:43.435Z,94.1
2017-10-31T10:27:43.442Z,91.9
2017-10-31T10:28:43.503Z,90.9
2017-10-31T10:29:43.452Z,90.4
2017-10-31T10:30:43.457Z,90.2
2017-10-31T10:31:43.463Z,90.1
2017-10-31T10:32:43.452Z,90
2017-10-31T10:33:43.512Z,90
2017-10-31T10:34:43.486Z,103.5
2017-10-31T10:35:43.496Z,96
2017-10-31T10:36:43.510Z,92.8
2017-10-31T10:37:43.526Z,91.3
2017-10-31T10:38:43.556Z,90.6
2017-10-31T10:39:43.608Z,90.3
2017-10-31T10:40:43.564Z,90.1
2017-10-31T10:41:43.659Z,90.1
2017-10-31T10:42:43.628Z,90
2017-10-31T10:43:43.704Z,90
2017-10-31T10:44:43.675Z,90
2017-10-31T10:45:43.652Z,90
2017-10-31T10:46:43.718Z,90
2017-10-31T10:47:43.698Z,90
2017-10-31T10:48:43.768Z,97
2017-10-31T10:49:43.718Z,106.7
2017-10-31T10:50:43.707Z,109.6
2017-10-31T10:51:43.781Z,111.2
2017-10-31T10:52:43.745Z,111.9
2017-10-31T10:53:43.816Z,112.2
2017-10-31T10:54:43.798Z,112.9
2017-10-31T10:55:43.772Z,124.7
2017-10-31T10:56:43.750Z,130.2
2017-10-31T10:57:43.800Z,121.1
2017-10-31T10:58:43.834Z,128.6
2017-10-31T10:59:43.864Z,125.6
2017-10-31T11:00:43.835Z,327.3
2017-10-31T11:01:43.804Z,46.1
2017-10-31T11:02:43.880Z,45.3
2017-10-31T11:03:43.956Z,45.1
2017-10-31T11:04:43.596Z,45
2017-10-31T11:05:43.907Z,45
2017-10-31T11:06:43.868Z,45
2017-10-31T11:08:03.204Z,45
2017-10-31T11:08:44.018Z,45
2017-10-31T11:09:43.880Z,45
2017-10-31T11:10:43.943Z,45
2017-10-31T11:11:43.961Z,45
2017-10-31T11:12:43.994Z,45
2017-10-31T11:13:43.963Z,45
2017-10-31T11:14:43.903Z,45
2017-10-31T11:15:43.929Z,45
2017-10-31T11:16:43.424Z,45
2017-10-31T11:17:43.971Z,45
2017-10-31T11:18:44.040Z,45
2017-10-31T11:19:44.011Z,45
2017-10-31T11:20:43.415Z,45
2017-10-31T11:21:43.415Z,45
2017-10-31T11:22:43.414Z,45
2017-10-31T11:23:43.433Z,45
2017-10-31T11:24:43.484Z,45
2017-10-31T11:25:43.422Z,45
2017-10-31T11:26:43.393Z,45
2017-10-31T11:27:43.459Z,45
2017-10-31T11:28:43.402Z,45
2017-10-31T11:29:43.470Z,45
2017-10-31T11:30:43.435Z,45
2017-10-31T11:31:43.430Z,45
2017-10-31T11:32:43.478Z,45
2017-10-31T11:33:43.488Z,45
2017-10-31T11:34:43.567Z,45
2017-10-31T11:35:43.419Z,45
2017-10-31T11:36:43.413Z,45
2017-10-31T11:37:43.421Z,45
2017-10-31T11:38:43.427Z,45
2017-10-31T11:39:43.468Z,45
2017-10-31T11:40:43.427Z,45
2017-10-31T11:41:43.433Z,45
2017-10-31T11:42:43.402Z,55.8
2017-10-31T11:43:43.401Z,62.1
2017-10-31T11:44:43.493Z,65
2017-10-31T11:45:43.437Z,66.3
2017-10-31T11:46:43.434Z,67
2017-10-31T11:47:43.443Z,67.2
2017-10-31T11:48:43.439Z,67.4
2017-10-31T11:49:43.468Z,67.4
2017-10-31T11:50:43.394Z,67.5
2017-10-31T11:51:43.488Z,67.5
2017-10-31T11:52:43.420Z,67.5
2017-10-31T11:53:43.412Z,70.6
2017-10-31T11:54:43.544Z,81
2017-10-31T11:55:43.411Z,85.9
2017-10-31T11:56:43.462Z,88.1
2017-10-31T11:57:43.432Z,89.1
2017-10-31T11:58:43.440Z,89.6
2017-10-31T11:59:43.535Z,89.8
2017-10-31T12:00:43.400Z,89.9
2017-10-31T12:01:43.434Z,90
2017-10-31T12:02:43.418Z,90
2017-10-31T12:08:06.200Z,90
2017-10-31T12:08:43.444Z,90
2017-10-31T12:09:43.432Z,90
2017-10-31T12:10:43.579Z,90
2017-10-31T12:11:43.439Z,87.4
2017-10-31T12:12:43.415Z,62.7
2017-10-31T12:13:43.534Z,52.7
2017-10-31T12:14:43.443Z,48.5
2017-10-31T12:15:44.687Z,46.6
2017-10-31T12:16:43.469Z,45.7
2017-10-31T12:17:43.424Z,45.3
2017-10-31T12:18:43.486Z,45.2
2017-10-31T12:19:43.401Z,50.9
2017-10-31T12:20:43.399Z,58.1
2017-10-31T12:21:43.436Z,51.1
2017-10-31T12:22:43.412Z,57.2
2017-10-31T12:23:43.444Z,62.7
2017-10-31T12:24:43.410Z,74.6
2017-10-31T12:25:43.391Z,78.7
2017-10-31T12:26:43.456Z,58.6
2017-10-31T12:27:43.413Z,51.1
2017-10-31T12:28:43.408Z,47.8
2017-10-31T12:29:43.415Z,51.8
2017-10-31T12:30:43.525Z,60.2
2017-10-31T12:31:43.519Z,64.1
2017-10-31T12:32:43.385Z,65.9
2017-10-31T12:33:43.431Z,66.8
2017-10-31T12:34:43.382Z,61.7
2017-10-31T12:35:43.405Z,52.8
2017-10-31T12:36:43.478Z,58.6
2017-10-31T12:37:43.416Z,63.4
2017-10-31T12:38:43.403Z,65.6
2017-10-31T12:39:43.398Z,66.6
2017-10-31T12:40:43.600Z,67.1
2017-10-31T12:41:43.516Z,67.3
2017-10-31T12:42:43.477Z,71.9
2017-10-31T12:43:43.427Z,81.6
2017-10-31T12:44:43.399Z,86.1
2017-10-31T12:45:43.370Z,88.2
2017-10-31T12:46:43.479Z,89.2
2017-10-31T12:47:43.463Z,89.6
2017-10-31T12:48:43.523Z,89.8
2017-10-31T12:49:43.455Z,89.9
2017-10-31T12:50:43.467Z,90
2017-10-31T12:51:43.467Z,90
2017-10-31T12:52:43.461Z,90
2017-10-31T12:53:43.514Z,90
2017-10-31T12:54:43.564Z,90
2017-10-31T12:55:43.384Z,96.8
2017-10-31T12:56:43.585Z,93.1
2017-10-31T12:57:43.427Z,108.4
2017-10-31T12:58:43.422Z,123
2017-10-31T12:59:43.453Z,130.2
2017-10-31T13:00:43.468Z,112.7
2017-10-31T13:01:43.504Z,105
2017-10-31T13:02:43.539Z,119.6
2017-10-31T13:03:43.330Z,119.5
2017-10-31T13:04:43.414Z,120.8
2017-10-31T13:05:43.486Z,116.2
2017-10-31T13:06:43.475Z,102
2017-10-31T13:07:43.390Z,95.5
2017-10-31T13:08:43.400Z,92.5
2017-10-31T13:09:43.388Z,91.2
2017-10-31T13:10:43.433Z,90.6
2017-10-31T13:11:43.449Z,90.3
2017-10-31T13:12:43.424Z,90.1
2017-10-31T13:13:43.401Z,83.4
2017-10-31T13:14:43.449Z,87
2017-10-31T13:15:43.422Z,88.6
2017-10-31T13:16:43.465Z,89.3
2017-10-31T13:17:43.396Z,89.7
2017-10-31T13:18:43.396Z,89.9
2017-10-31T13:19:43.397Z,89.9
2017-10-31T13:20:43.383Z,90
2017-10-31T13:21:43.436Z,90
2017-10-31T13:22:43.373Z,90
2017-10-31T13:23:43.375Z,90
2017-10-31T13:24:43.546Z,90